Station: Lake Julius

  Atmospheric Gas Attenuation - ITU Rec 676-11   --------------- db/100km ---------------
Date Time Temp RH % AH g/m3 Dew Point Wind Direction Speed kph Gust kph Barometer mB Rainfall Since 9am 24GHz 47GHz 76GHz 122GHz 134GHz 241GHz
27 01:00 25.6 54 12.86 15.6 0 7 1013.1 0 27.9 29.1 50.1 132.0 136.3 472.4
27 00:50 26 50 12.17 15 0 0 1013.1 0 26.5 27.9 47.1 124.2 126.8 439.4
27 00:40 26.3 50 12.38 15.3 0 0 1013.1 0 26.9 28.1 47.8 125.9 129.0 446.9
27 00:30 25.5 55 13.02 15.8 2 7 1013.1 0 28.3 29.4 50.8 133.9 138.5 480.3
27 00:20 26 52 12.66 15.6 7 7 1013.1 0 27.5 28.6 49.0 129.3 133.0 461.1
27 00:10 25.7 53 12.69 15.4 0 0 1013.1 0 27.6 28.8 49.3 130.1 133.9 464.2
27 00:00 25.9 54 13.07 15.9 0 0 1013.1 0 28.4 29.3 50.7 133.7 138.5 480.1
26 22:35 27.2 45 11.71 14.5 0 0 1013.1 0 25.4 26.8 44.7 117.8 119.2 413.0
26 22:30 27.4 46 12.1 14.8 0 0 1013.1 0 26.2 27.3 46.1 121.4 123.7 428.7
26 21:47 28 46 12.51 15.3 0 0 1013.1 0 27.0 27.8 47.3 124.6 127.8 443.1
26 21:40 28.2 41 11.27 14 0 0 1013.1 0 24.5 25.9 42.6 112.0 112.5 389.5
26 21:30 28.2 44 12.1 15.1 0 0 1013.1 0 26.2 27.1 45.6 120.2 122.5 424.4
26 20:19 30 34 10.31 12.8 0 0 1013.1 0 22.4 24.0 38.3 100.7 99.0 342.6
26 20:10 30.1 34 10.37 12.9 0 0 1013.1 0 22.5 24.1 38.5 101.1 99.6 344.5
26 20:00 30.3 33 10.17 12.2 0 0 1013.1 0 22.1 23.7 37.7 99.1 97.1 335.8
26 19:50 30.9 32 10.19 12.7 0 0 1013.1 0 22.1 23.6 37.5 98.5 96.6 334.2
26 19:40 31.3 31 10.08 12.6 0 0 1013.1 0 21.8 23.4 36.9 97.1 94.9 328.3
26 19:30 31.7 31 10.3 12.5 2 4 1013.1 0 22.3 23.5 37.5 98.6 96.8 335.2
26 19:20 32 28 9.46 11.7 2 2 1013.1 0 20.5 22.4 34.6 90.8 87.4 302.1
26 19:10 32.6 26 9.06 10.6 6 7 1013.1 0 19.7 21.7 33.1 86.8 82.6 285.2
26 19:00 33.1 24 8.59 9.8 6 9 1013.1 0 18.7 21.0 31.4 82.3 77.2 266.5
26 18:50 33.2 22 7.92 9.2 7 9 1013.1 0 17.3 20.1 29.3 76.8 70.4 242.5
26 18:40 33.5 23 8.41 9.5 6 7 1013.1 0 18.3 20.7 30.7 80.5 75.0 258.9
26 18:30 34.1 23 8.68 10 2 6 1013.1 0 18.8 20.9 31.3 82.1 77.2 266.6
26 18:20 33.8 25 9.29 11 4 4 1013.1 0 20.1 21.7 33.3 87.5 83.8 289.5
26 18:10 34.2 23 8.72 10.1 4 4 1013.1 0 18.9 20.9 31.4 82.3 77.5 267.7
26 18:00 34.5 21 8.09 9 4 6 1013.1 0 17.6 20.1 29.4 76.9 71.0 244.7
26 17:50 34.6 20 7.75 9 7 9 1013.1 0 16.9 19.6 28.3 74.2 67.6 232.7
26 17:40 35.3 19 7.63 8.1 7 11 1013.1 0 16.6 19.3 27.8 72.6 65.8 226.7
26 17:30 35.1 19 7.55 8 7 13 1013.1 0 16.5 19.3 27.6 72.2 65.2 224.6
26 17:20 35.5 20 8.12 9.1 4 6 1013.1 0 17.6 19.9 29.1 76.3 70.4 242.8
26 17:10 35.6 16 6.53 5.9 6 7 1013.1 0 14.4 18.0 24.5 64.0 55.3 189.6
26 17:00 36.1 15 6.28 5.4 7 9 1013.1 0 13.9 17.6 23.7 61.8 52.7 180.5
26 16:50 36.5 18 7.7 8.3 7 9 1013.1 0 16.7 19.2 27.6 72.1 65.6 225.9
26 16:40 36 18 7.5 7.9 6 7 1013.1 0 16.3 19.0 27.2 71.0 64.1 220.5
26 16:30 35.9 21 8.7 10.2 7 11 1013.1 0 18.8 20.5 30.7 80.5 75.8 261.7
26 16:20 35.5 22 8.93 10.5 9 11 1013.1 0 19.3 20.9 31.6 82.8 78.4 271.0
26 16:10 36.1 22 9.21 11 4 6 1013.1 0 19.8 21.1 32.2 84.5 80.7 278.8
26 16:00 35.6 23 9.39 11.3 6 9 1013.1 0 20.2 21.4 32.9 86.4 83.0 286.9
26 15:50 35.7 24 9.84 12 7 9 1013.1 0 21.1 22.0 34.3 90.1 87.5 302.7
26 15:40 35.5 22 8.93 10.5 6 7 1013.1 0 19.3 20.9 31.6 82.8 78.4 271.0
26 15:30 35.8 25 10.31 12.7 6 9 1013.1 0 22.1 22.6 35.7 93.9 92.2 319.4
26 15:20 35 22 8.7 10.7 6 7 1013.1 0 18.8 20.7 31.0 81.4 76.6 264.5
26 15:10 35.7 25 10.25 12.6 4 6 1013.1 0 21.9 22.5 35.6 93.5 91.7 317.5
26 15:00 35.7 25 10.25 12.6 4 7 1013.1 0 21.9 22.5 35.6 93.5 91.7 317.5
26 14:50 35.5 23 9.34 11.2 6 7 1013.1 0 20.1 21.4 32.8 86.1 82.6 285.5
26 14:40 34 23 8.63 9.9 6 6 1013.1 0 18.7 20.8 31.2 81.8 76.8 265.1
26 14:30 34.7 24 9.35 11.2 6 15 1013.1 0 20.2 21.6 33.2 87.0 83.5 288.5
26 14:20 34.5 24 9.25 11 4 6 1013.1 0 20.0 21.5 32.9 86.4 82.6 285.6
26 14:10 35 25 9.89 12 4 6 1013.1 0 21.2 22.2 34.7 91.2 88.7 307.0
26 14:00 33.8 27 10.03 12.2 6 13 1013.1 0 21.6 22.7 35.7 93.8 91.5 316.7
26 13:50 33.6 25 9.19 11.4 9 11 1013.1 0 19.9 21.6 33.1 86.8 82.9 286.5
26 13:40 34.1 24 9.06 11.2 4 6 1013.1 0 19.6 21.3 32.5 85.2 81.1 280.2
26 13:30 33.4 24 8.73 10.1 7 11 1013.1 0 19.0 21.1 31.7 83.2 78.4 270.6
26 13:20 33.2 26 9.36 11.1 7 11 1013.1 0 20.3 21.9 33.8 88.7 85.1 294.1
26 13:10 32.7 24 8.41 9.5 7 9 1013.1 0 18.3 20.8 31.0 81.2 75.8 261.4
26 13:00 33.3 23 8.32 9.4 6 11 1013.1 0 18.1 20.6 30.5 79.9 74.3 256.3
26 12:50 32.8 20 7.05 6.9 6 6 1013.1 0 15.5 19.1 26.9 70.2 62.1 213.5
26 12:40 33.4 20 7.27 7.3 2 4 1013.1 0 16.0 19.3 27.3 71.4 63.8 219.5
26 12:30 32.4 21 7.24 7.3 11 17 1013.1 0 15.9 19.4 27.5 72.0 64.3 221.0
26 12:20 32.1 21 7.13 7 15 17 1013.1 0 15.7 19.4 27.3 71.4 63.5 218.0
26 12:10 31.8 20 6.68 6 11 13 1013.1 0 14.8 18.9 26.1 68.0 59.3 203.3
26 12:00 30.8 20 6.33 5.3 7 15 1013.1 0 14.1 18.7 25.3 66.1 56.6 193.6
26 11:50 30.5 20 6.23 5 7 7 1013.1 0 14.0 18.6 25.1 65.5 55.8 190.9
26 11:40 29.7 21 6.27 5 6 7 1013.1 0 14.1 18.8 25.5 66.5 56.7 194.1
26 11:30 29.8 20 6 4.4 9 15 1013.1 0 13.5 18.5 24.7 64.2 54.0 184.6
26 11:20 29.7 20 5.97 4.3 9 13 1013.1 0 13.4 18.4 24.6 64.1 53.8 183.8
26 11:10 29.6 20 5.94 4.2 9 11 1013.1 0 13.4 18.4 24.5 63.9 53.6 183.0
26 11:00 29.9 18 5.43 3 11 19 1013.1 0 12.3 17.8 23.0 59.7 48.5 165.1
26 10:50 29 20 5.75 3.7 13 19 1013.1 0 13.0 18.3 24.2 62.9 52.1 177.7
26 10:40 29.5 19 5.61 3.4 13 17 1013.1 0 12.7 18.1 23.6 61.4 50.4 171.9
26 10:30 29.3 18 5.26 2.5 13 19 1013.1 0 12.0 17.7 22.7 58.8 47.2 160.5
26 10:20 29.3 20 5.84 4 11 13 1013.1 0 13.2 18.4 24.3 63.4 52.8 180.2
26 10:10 29.6 21 6.23 4.9 7 9 1013.1 0 14.0 18.8 25.4 66.2 56.4 192.9
26 10:00 29.2 19 5.52 3.2 11 17 1013.1 0 12.5 18.0 23.4 60.9 49.7 169.5
26 09:50 28.2 18 4.95 1.6 17 20 1013.1 0 11.4 17.5 22.0 57.2 44.9 152.1
26 09:40 28.3 18 4.98 1.7 13 17 1013.1 0 11.5 17.5 22.1 57.4 45.1 153.0
26 09:30 28 18 4.9 1.5 15 26 1013.1 0 11.3 17.5 22.0 56.9 44.5 150.8
26 09:20 27.5 19 5.03 1.8 13 17 1013.1 0 11.6 17.7 22.5 58.3 46.0 156.1
26 09:10 27 20 5.15 2.1 11 15 1013.1 0 11.8 18.0 22.9 59.6 47.4 161.1
26 09:00 26.5 20 5.01 1.7 13 20 1013.1 0 11.6 17.9 22.7 58.8 46.4 157.3
26 08:50 26.5 20 5.01 1.7 11 13 1013.1 0 11.6 17.9 22.7 58.8 46.4 157.3
26 08:40 26 22 5.36 2.6 7 11 1013.1 0 12.3 18.4 23.8 62.0 50.1 170.4
26 08:30 25.9 22 5.33 2.6 11 15 1013.1 0 12.2 18.4 23.8 61.8 49.8 169.5
26 08:20 25.4 22 5.18 2.1 11 11 1013.1 0 12.0 18.3 23.5 61.0 48.7 165.2
26 08:00 25 20 4.6 0.5 11 13 1013.1 10.8 17.7 21.8 56.6 43.2 145.8
26 07:54 25 20 4.6 0.5 9 9 1013.1 0 10.8 17.7 21.8 56.6 43.2 145.8
26 07:50 25 20 4.6 0.5 11 13 1013.1 0 10.8 17.7 21.8 56.6 43.2 145.8
26 07:40 25 20 4.6 0.5 9 11 1013.1 0 10.8 17.7 21.8 56.6 43.2 145.8
26 07:30 24.9 20 4.58 0.4 13 17 1013.1 0 10.7 17.7 21.8 56.5 43.0 145.3
26 07:20 24.9 21 4.81 1.1 11 13 1013.1 0 11.2 17.9 22.5 58.3 45.3 153.3
26 07:10 25.1 20 4.63 0.5 11 13 1013.1 0 10.8 17.7 21.9 56.8 43.4 146.7
26 07:00 25.4 19 4.47 0.1 13 19 1013.1 0 10.5 17.4 21.4 55.3 41.7 140.7
26 06:50 25.4 19 4.47 0.1 13 13 1013.1 0 10.5 17.4 21.4 55.3 41.7 140.7
26 06:40 25.6 19 4.52 0.2 13 17 1013.1 0 10.6 17.5 21.5 55.6 42.1 142.1
26 06:30 25.7 20 4.79 1.1 15 19 1013.1 0 11.1 17.8 22.2 57.6 44.6 151.1
26 06:20 25.6 22 5.24 2.3 11 13 1013.1 0 12.1 18.3 23.6 61.3 49.1 167.0
26 05:47 26.7 20 5.06 1.9 11 13 1013.1 0 11.7 17.9 22.8 59.1 46.7 158.6
26 05:40 26.8 19 4.84 1.2 15 17 1013.1 0 11.2 17.6 22.1 57.3 44.5 150.9
26 05:30 26.9 18 4.61 0.6 13 17 1013.1 0 10.7 17.3 21.4 55.4 42.3 142.9

Last Refresh: 27-Feb-2021 01:42:30

Most of the information presented on this site is sourced from the Bureau of Meteorology.  Copyright in all material sourced from the Bureau of Meteorology resides with the Commonwealth of Australia.